Time;durP1;ratioP1;P1;durP2;ratioP2;P2;SDS_P1;SDS_P2;PMS_P1;PMS_P2;Temp;Humidity;BMP_temperature;BMP_pressure;BME280_temperature;BME280_humidity;BME280_pressure;Samples;Min_cycle;Max_cycle;Signal;HPM_P1;HPM_P2
2022/08/14 00:00:21;;;;;;;4.40;4.07;;;21.40;60.40;;;;;;4958047;29;20942;-65
2022/08/14 00:02:48;;;;;;;4.40;3.90;;;21.30;60.50;;;;;;4958190;29;20451;-64
2022/08/14 00:05:20;;;;;;;4.83;4.40;;;21.30;61.30;;;;;;4958057;29;20487;-64
2022/08/14 00:07:48;;;;;;;4.77;4.40;;;21.20;62.00;;;;;;4958168;29;20804;-63
2022/08/14 00:10:18;;;;;;;5.77;4.37;;;21.20;62.30;;;;;;4958220;29;20891;-64
2022/08/14 00:12:48;;;;;;;5.17;4.77;;;21.10;62.90;;;;;;4958153;29;20452;-63
2022/08/14 00:15:18;;;;;;;4.60;4.20;;;21.00;63.30;;;;;;4957911;29;20498;-64
2022/08/14 00:17:46;;;;;;;4.53;4.23;;;21.00;63.90;;;;;;4957784;29;21029;-63
2022/08/14 00:20:13;;;;;;;5.50;5.10;;;20.90;64.30;;;;;;4957676;29;20452;-63
2022/08/14 00:22:41;;;;;;;7.30;4.60;;;20.80;64.70;;;;;;4958372;29;20459;-63
2022/08/14 00:25:09;;;;;;;4.93;4.63;;;20.80;64.90;;;;;;4957891;29;20479;-63
2022/08/14 00:27:37;;;;;;;5.80;4.60;;;20.70;65.20;;;;;;4957945;29;20456;-64
2022/08/14 00:30:07;;;;;;;4.57;4.27;;;20.60;65.50;;;;;;4957879;29;20455;-64
2022/08/14 00:32:33;;;;;;;5.30;4.80;;;20.60;66.10;;;;;;4957706;29;20828;-62
2022/08/14 00:35:00;;;;;;;4.80;4.50;;;20.50;66.40;;;;;;4957902;29;20482;-63
2022/08/14 00:37:27;;;;;;;6.30;4.90;;;20.40;67.00;;;;;;4958517;29;20471;-63
2022/08/14 00:39:56;;;;;;;5.27;4.97;;;20.40;67.30;;;;;;4958525;29;20459;-63
2022/08/14 00:42:24;;;;;;;5.10;4.80;;;20.30;67.60;;;;;;4958630;29;20462;-64
2022/08/14 00:44:50;;;;;;;5.10;4.73;;;20.30;68.30;;;;;;4958002;29;20486;-63
2022/08/14 00:47:18;;;;;;;4.53;4.23;;;20.30;68.40;;;;;;4958313;29;20452;-64
2022/08/14 00:49:45;;;;;;;5.07;4.53;;;20.20;68.70;;;;;;4957493;28;20959;-64
2022/08/14 00:52:14;;;;;;;6.13;4.77;;;20.20;69.10;;;;;;4957658;29;20455;-64
2022/08/14 00:54:42;;;;;;;4.47;4.17;;;20.10;69.50;;;;;;4957791;29;20483;-63
2022/08/14 00:57:10;;;;;;;5.20;4.90;;;20.00;69.90;;;;;;4957803;29;20475;-63
2022/08/14 00:59:38;;;;;;;6.27;4.90;;;19.90;70.50;;;;;;4957656;29;20946;-64
2022/08/14 01:02:05;;;;;;;4.60;4.30;;;19.80;71.00;;;;;;4957820;29;20483;-63
2022/08/14 01:04:35;;;;;;;5.40;5.07;;;19.80;72.40;;;;;;4957527;29;20515;-63
2022/08/14 01:07:02;;;;;;;5.03;4.63;;;19.70;71.60;;;;;;4957986;29;20451;-64
2022/08/14 01:09:30;;;;;;;4.77;4.40;;;19.60;71.90;;;;;;4957515;29;20535;-64
2022/08/14 01:11:57;;;;;;;5.03;4.57;;;19.60;72.60;;;;;;4957589;29;20826;-63
2022/08/14 01:14:25;;;;;;;5.00;4.60;;;19.50;73.00;;;;;;4957537;29;20486;-63
2022/08/14 01:16:52;;;;;;;6.17;3.77;;;19.40;73.30;;;;;;4957480;29;20554;-63
2022/08/14 01:22:06;;;;;;;4.70;4.30;;;19.30;72.80;;;;;;4957652;29;20906;-63
2022/08/14 01:24:33;;;;;;;4.40;4.20;;;19.30;73.10;;;;;;4957455;29;20475;-63
2022/08/14 01:27:00;;;;;;;4.53;4.20;;;19.30;73.50;;;;;;4958087;29;20448;-64
2022/08/14 01:29:28;;;;;;;4.13;3.83;;;19.20;73.70;;;;;;4957810;29;20459;-64
2022/08/14 01:31:55;;;;;;;4.10;3.77;;;19.20;74.10;;;;;;4957605;29;20455;-64
2022/08/14 01:34:24;;;;;;;4.57;4.27;;;19.20;74.50;;;;;;4957268;29;21005;-63
2022/08/14 01:36:52;;;;;;;3.83;3.63;;;19.20;74.60;;;;;;4957555;29;20535;-63
2022/08/14 01:39:20;;;;;;;4.23;3.93;;;19.30;74.70;;;;;;4957043;29;20462;-64
2022/08/14 01:41:55;;;;;;;4.27;3.97;;;19.30;75.00;;;;;;4957443;29;20452;-63
2022/08/14 01:44:24;;;;;;;4.87;4.47;;;19.30;75.40;;;;;;4956646;29;21041;-63
2022/08/14 01:46:53;;;;;;;4.47;4.27;;;19.30;75.70;;;;;;4956658;29;20547;-63
2022/08/14 01:49:20;;;;;;;4.87;4.57;;;19.30;75.90;;;;;;4956937;29;20811;-64
2022/08/14 01:51:53;;;;;;;5.13;4.63;;;19.30;76.60;;;;;;4956645;29;20817;-64
2022/08/14 01:54:21;;;;;;;5.03;3.90;;;19.30;76.80;;;;;;4956796;29;20479;-64
2022/08/14 01:56:51;;;;;;;5.03;4.73;;;19.30;77.40;;;;;;4956610;29;20570;-63
2022/08/14 01:59:25;;;;;;;5.10;4.70;;;19.30;78.00;;;;;;4956456;29;20456;-64
2022/08/14 02:01:54;;;;;;;4.47;4.13;;;19.30;78.70;;;;;;4956127;28;20499;-64
2022/08/14 02:04:22;;;;;;;4.80;4.60;;;19.20;79.40;;;;;;4956335;29;20843;-63
2022/08/14 02:06:50;;;;;;;5.13;4.83;;;19.10;80.10;;;;;;4956323;29;20915;-63
2022/08/14 02:09:18;;;;;;;4.87;4.67;;;19.10;80.90;;;;;;4956666;29;20491;-63
2022/08/14 02:11:46;;;;;;;5.30;4.90;;;19.00;81.70;;;;;;4956450;29;20460;-64
2022/08/14 02:14:13;;;;;;;5.80;4.93;;;19.00;82.10;;;;;;4956607;29;20486;-64
2022/08/14 02:16:43;;;;;;;4.50;4.20;;;18.90;82.50;;;;;;4956399;29;20455;-65
2022/08/14 02:19:12;;;;;;;5.30;5.00;;;18.90;83.60;;;;;;4956712;29;20542;-63
2022/08/14 02:21:39;;;;;;;4.60;4.30;;;18.90;85.00;;;;;;4956540;29;20484;-63
2022/08/14 02:24:07;;;;;;;4.20;4.00;;;18.90;84.90;;;;;;4956053;29;20482;-63
2022/08/14 02:26:38;;;;;;;4.27;4.00;;;18.90;85.60;;;;;;4955978;29;21016;-64
2022/08/14 02:29:08;;;;;;;5.47;5.07;;;18.90;85.90;;;;;;4956244;29;20446;-63
2022/08/14 02:31:37;;;;;;;5.00;4.60;;;18.80;86.20;;;;;;4956374;29;20443;-63
2022/08/14 02:34:07;;;;;;;5.17;4.70;;;18.80;86.70;;;;;;4956302;29;20482;-63
2022/08/14 02:36:33;;;;;;;5.20;4.70;;;18.80;87.30;;;;;;4956522;29;20456;-62
2022/08/14 02:39:00;;;;;;;4.30;4.10;;;18.80;87.70;;;;;;4956154;29;20460;-64
2022/08/14 02:41:27;;;;;;;4.63;4.27;;;18.70;88.20;;;;;;4955490;29;20456;-63
2022/08/14 02:43:53;;;;;;;5.00;4.53;;;18.70;89.00;;;;;;4955794;29;20566;-63
2022/08/14 02:46:21;;;;;;;4.80;4.50;;;18.70;89.50;;;;;;4955600;29;20460;-63
2022/08/14 02:48:48;;;;;;;4.33;4.03;;;18.60;90.00;;;;;;4955628;29;20451;-63
2022/08/14 02:51:15;;;;;;;4.67;4.37;;;18.60;90.30;;;;;;4955654;29;20510;-63
2022/08/14 02:53:44;;;;;;;5.00;4.70;;;18.60;90.90;;;;;;4955847;29;21002;-64
2022/08/14 02:56:14;;;;;;;4.77;4.37;;;18.60;91.10;;;;;;4957276;29;20462;-63
2022/08/14 02:58:45;;;;;;;5.70;5.40;;;18.60;91.50;;;;;;4957505;29;20480;-64
2022/08/14 03:01:13;;;;;;;4.90;4.60;;;18.60;91.60;;;;;;4957086;29;20534;-64
2022/08/14 03:03:41;;;;;;;5.10;4.80;;;18.70;91.70;;;;;;4955681;29;21061;-63
2022/08/14 03:06:10;;;;;;;5.60;5.30;;;18.60;91.70;;;;;;4955453;29;20967;-63
2022/08/14 03:08:38;;;;;;;4.70;4.50;;;18.60;91.80;;;;;;4955563;29;20455;-63
2022/08/14 03:11:08;;;;;;;4.80;4.57;;;18.60;92.10;;;;;;4955684;29;20462;-64
2022/08/14 03:13:36;;;;;;;5.60;5.20;;;18.60;92.40;;;;;;4957471;28;20990;-63
2022/08/14 03:16:07;;;;;;;5.60;5.10;;;18.60;92.70;;;;;;4959617;29;20455;-63
2022/08/14 03:18:35;;;;;;;4.80;4.50;;;18.50;92.80;;;;;;4958807;29;20970;-63
2022/08/14 03:21:06;;;;;;;4.63;4.33;;;18.50;92.90;;;;;;4959161;29;20459;-63
2022/08/14 03:23:34;;;;;;;4.90;4.60;;;18.50;93.20;;;;;;4959143;29;20555;-63
2022/08/14 03:26:02;;;;;;;4.57;4.17;;;18.50;93.60;;;;;;4959073;29;20459;-63
2022/08/14 03:28:29;;;;;;;4.93;4.63;;;18.50;93.70;;;;;;4959665;29;20550;-63
2022/08/14 03:30:56;;;;;;;5.23;4.57;;;18.40;94.50;;;;;;4960266;29;20459;-63
2022/08/14 03:33:23;;;;;;;4.60;4.20;;;18.50;94.50;;;;;;4959160;29;20475;-63
2022/08/14 03:35:50;;;;;;;4.40;4.20;;;18.40;95.00;;;;;;4958908;29;20862;-63
2022/08/14 03:38:18;;;;;;;5.03;4.60;;;18.40;95.20;;;;;;4958888;29;20502;-63
2022/08/14 03:40:46;;;;;;;5.00;4.60;;;18.40;95.40;;;;;;4959021;29;20467;-63
2022/08/14 03:43:13;;;;;;;4.80;4.40;;;18.40;95.70;;;;;;4958943;29;20872;-63
2022/08/14 03:45:42;;;;;;;5.07;4.67;;;18.40;95.80;;;;;;4959032;29;20463;-63
2022/08/14 03:48:14;;;;;;;5.67;5.17;;;18.40;95.90;;;;;;4959043;29;20455;-63
2022/08/14 03:50:43;;;;;;;5.20;4.80;;;18.40;96.20;;;;;;4959340;29;20538;-63
2022/08/14 03:53:12;;;;;;;4.97;4.67;;;18.30;96.30;;;;;;4961092;29;20506;-63
2022/08/14 03:55:40;;;;;;;5.20;4.80;;;18.30;96.50;;;;;;4960842;29;20455;-63
2022/08/14 03:58:07;;;;;;;5.00;4.70;;;18.30;96.60;;;;;;4960134;29;20491;-63
2022/08/14 04:00:35;;;;;;;5.43;5.13;;;18.30;96.60;;;;;;4958223;29;20459;-64
2022/08/14 04:03:04;;;;;;;5.37;5.00;;;18.20;96.40;;;;;;4958346;29;20934;-62
2022/08/14 04:05:31;;;;;;;5.00;4.70;;;18.20;96.90;;;;;;4959438;29;20455;-63
2022/08/14 04:07:58;;;;;;;5.00;4.60;;;18.10;97.10;;;;;;4958513;29;20451;-63
2022/08/14 04:10:26;;;;;;;5.37;4.97;;;18.10;97.30;;;;;;4958751;29;20864;-63
2022/08/14 04:12:58;;;;;;;5.10;4.70;;;18.00;97.60;;;;;;4958007;29;21002;-64
2022/08/14 04:15:25;;;;;;;6.73;5.37;;;18.00;97.90;;;;;;4958222;29;20486;-64
2022/08/14 04:17:52;;;;;;;5.50;5.10;;;18.00;98.20;;;;;;4958009;29;20480;-65
2022/08/14 04:20:19;;;;;;;5.03;4.63;;;18.00;98.60;;;;;;4958112;29;20459;-65
2022/08/14 04:22:46;;;;;;;5.23;4.83;;;17.90;98.70;;;;;;4957835;29;20460;-65
2022/08/14 04:25:12;;;;;;;4.87;4.47;;;17.90;98.80;;;;;;4957203;28;20479;-65
2022/08/14 04:27:40;;;;;;;4.80;4.50;;;17.90;99.20;;;;;;4957771;29;20463;-64
2022/08/14 04:30:09;;;;;;;5.23;4.93;;;17.90;99.40;;;;;;4957697;29;20456;-65
2022/08/14 04:32:36;;;;;;;5.10;4.80;;;17.90;99.70;;;;;;4957343;29;20961;-65
2022/08/14 04:35:04;;;;;;;7.20;4.90;;;17.90;99.90;;;;;;4957530;29;20486;-65
2022/08/14 04:45:45;;;;;;;5.20;4.80;;;18.00;99.90;;;;;;4957462;29;20415;-64
2022/08/14 04:48:14;;;;;;;5.13;4.83;;;18.00;99.80;;;;;;4957211;29;20532;-64
2022/08/14 04:50:43;;;;;;;4.80;4.50;;;17.90;99.90;;;;;;4957093;29;20460;-64
2022/08/14 04:53:11;;;;;;;5.30;4.90;;;18.00;99.90;;;;;;4956989;29;20464;-64
2022/08/14 04:55:39;;;;;;;5.50;5.00;;;17.90;99.90;;;;;;4957147;29;20456;-66
2022/08/14 04:58:06;;;;;;;5.50;5.10;;;17.90;99.90;;;;;;4956815;29;20506;-64
2022/08/14 05:00:33;;;;;;;4.87;4.47;;;17.90;99.90;;;;;;4957198;29;20456;-64
2022/08/14 05:03:02;;;;;;;5.63;5.30;;;18.00;99.90;;;;;;4957096;29;20466;-64
2022/08/14 05:05:30;;;;;;;5.67;4.70;;;17.90;99.90;;;;;;4957103;29;20451;-64
2022/08/14 05:08:05;;;;;;;6.23;5.63;;;17.90;99.90;;;;;;4957057;29;20499;-64
2022/08/14 05:10:32;;;;;;;5.00;4.60;;;18.00;99.90;;;;;;4956918;29;20439;-64
2022/08/14 05:12:58;;;;;;;5.43;5.00;;;18.00;99.90;;;;;;4956929;29;20455;-64
2022/08/14 05:15:28;;;;;;;5.63;5.30;;;18.00;99.90;;;;;;4956846;29;20476;-64
2022/08/14 05:17:55;;;;;;;4.50;4.30;;;18.10;99.90;;;;;;4956829;29;20467;-64
2022/08/14 05:20:24;;;;;;;5.93;5.47;;;18.10;99.90;;;;;;4957027;29;20459;-64
2022/08/14 05:22:51;;;;;;;5.83;5.33;;;18.20;99.90;;;;;;4957682;29;20494;-65
2022/08/14 05:25:18;;;;;;;5.43;5.13;;;18.20;99.90;;;;;;4956710;29;20475;-64
2022/08/14 05:27:45;;;;;;;5.80;5.27;;;18.30;99.90;;;;;;4956368;29;21013;-64
2022/08/14 05:30:14;;;;;;;5.93;5.53;;;18.30;99.90;;;;;;4956758;29;20482;-63
2022/08/14 05:32:42;;;;;;;6.73;6.27;;;18.30;99.90;;;;;;4956860;29;20462;-64
2022/08/14 05:35:10;;;;;;;5.60;5.30;;;18.30;99.90;;;;;;4956561;29;20476;-64
2022/08/14 05:37:39;;;;;;;5.50;5.20;;;18.40;99.90;;;;;;4956528;28;20462;-65
2022/08/14 05:40:09;;;;;;;5.97;5.50;;;18.50;99.90;;;;;;4956584;29;20479;-64
2022/08/14 05:42:36;;;;;;;6.03;5.60;;;18.50;99.90;;;;;;4956669;29;20480;-64
2022/08/14 05:45:05;;;;;;;6.13;5.67;;;18.50;99.90;;;;;;4956523;29;20511;-64
2022/08/14 05:47:38;;;;;;;6.03;5.53;;;18.70;99.90;;;;;;4956769;29;20451;-64
2022/08/14 05:50:06;;;;;;;6.30;5.70;;;18.80;99.90;;;;;;4956450;29;20845;-63
2022/08/14 05:52:32;;;;;;;6.20;5.80;;;18.90;99.90;;;;;;4956498;29;20447;-64
2022/08/14 05:55:01;;;;;;;5.47;5.17;;;19.00;99.90;;;;;;4956362;29;20482;-64
2022/08/14 05:57:27;;;;;;;6.00;5.43;;;19.10;99.90;;;;;;4956402;29;20538;-64
2022/08/14 05:59:54;;;;;;;6.33;5.83;;;19.30;99.90;;;;;;4956158;29;20476;-65
2022/08/14 06:02:21;;;;;;;5.60;5.20;;;19.50;99.90;;;;;;4955994;29;20456;-65
2022/08/14 06:04:47;;;;;;;5.13;4.73;;;19.70;98.90;;;;;;4955558;29;20487;-65
2022/08/14 06:07:15;;;;;;;6.33;5.93;;;19.80;98.30;;;;;;4956050;29;20530;-65
2022/08/14 06:09:43;;;;;;;6.20;5.80;;;20.00;98.00;;;;;;4956187;29;20543;-65
2022/08/14 06:12:11;;;;;;;5.80;5.40;;;20.20;97.30;;;;;;4955831;29;20546;-64
2022/08/14 06:14:38;;;;;;;5.43;5.13;;;20.30;96.20;;;;;;4955279;29;21096;-64
2022/08/14 06:17:04;;;;;;;6.10;5.60;;;20.40;95.30;;;;;;4955831;29;20482;-64
2022/08/14 06:19:31;;;;;;;5.30;4.90;;;20.50;95.40;;;;;;4955474;29;21021;-64
2022/08/14 08:09:57;;;;;;;3.63;3.43;;;32.40;48.50;;;;;;5112342;27;21080;-65
2022/08/14 08:12:25;;;;;;;3.93;3.17;;;32.60;47.40;;;;;;5111863;28;20429;-64
2022/08/14 08:14:52;;;;;;;3.10;3.00;;;33.20;45.90;;;;;;5111844;28;20472;-64
2022/08/14 08:17:19;;;;;;;2.63;2.53;;;33.70;45.30;;;;;;5111603;28;20444;-65
2022/08/14 08:19:47;;;;;;;2.97;2.77;;;34.40;45.30;;;;;;5111666;28;20871;-66
2022/08/14 08:22:14;;;;;;;2.53;2.40;;;35.00;44.30;;;;;;5110780;28;20443;-66
2022/08/14 08:24:42;;;;;;;3.13;2.93;;;35.70;43.00;;;;;;5111332;28;20210;-65
2022/08/14 08:27:17;;;;;;;2.80;2.60;;;36.10;42.10;;;;;;5111189;28;20456;-66
2022/08/14 08:29:43;;;;;;;2.77;2.60;;;36.30;41.90;;;;;;5111461;28;20460;-66
2022/08/14 08:32:10;;;;;;;2.70;2.60;;;36.40;41.30;;;;;;5111197;28;20505;-66
2022/08/14 08:34:45;;;;;;;5.43;3.00;;;36.50;39.90;;;;;;5112087;28;20479;-65
2022/08/14 08:37:12;;;;;;;2.63;2.53;;;36.60;40.50;;;;;;5112571;28;20482;-66
2022/08/14 08:39:45;;;;;;;3.13;2.83;;;36.70;40.70;;;;;;5112239;28;20444;-66
2022/08/14 08:42:12;;;;;;;3.77;3.53;;;37.00;43.20;;;;;;5112713;28;20540;-65
2022/08/14 08:44:40;;;;;;;3.00;2.80;;;37.20;39.20;;;;;;5113213;28;20475;-65
2022/08/14 08:47:07;;;;;;;2.33;2.13;;;37.50;39.30;;;;;;5113267;28;20459;-65
2022/08/14 08:49:41;;;;;;;2.60;2.50;;;37.60;38.50;;;;;;5112603;28;20999;-65
2022/08/14 08:52:08;;;;;;;3.80;2.40;;;37.50;39.20;;;;;;5112008;28;20974;-64
2022/08/14 08:54:35;;;;;;;3.27;2.77;;;37.70;38.80;;;;;;5111742;28;20886;-63
2022/08/14 08:57:02;;;;;;;2.60;2.50;;;38.00;39.40;;;;;;5112095;28;20462;-62
2022/08/14 08:59:31;;;;;;;2.83;2.63;;;38.30;38.70;;;;;;5112152;28;20531;-62
2022/08/14 09:02:00;;;;;;;2.90;2.80;;;38.50;38.20;;;;;;5112121;28;20789;-62
2022/08/14 09:04:29;;;;;;;4.53;2.83;;;38.60;37.70;;;;;;5111339;28;20471;-62
2022/08/14 09:06:56;;;;;;;2.93;2.73;;;38.70;38.90;;;;;;5111860;28;20475;-63
2022/08/14 09:09:25;;;;;;;2.77;2.67;;;39.10;37.10;;;;;;5113418;28;20472;-63
2022/08/14 09:11:53;;;;;;;3.20;2.90;;;39.30;36.70;;;;;;5114337;28;20451;-62
2022/08/14 09:14:20;;;;;;;2.50;2.40;;;38.80;36.90;;;;;;5115307;28;20907;-62
2022/08/14 09:16:47;;;;;;;3.13;2.63;;;38.90;36.80;;;;;;5113746;28;20845;-62
2022/08/14 09:19:15;;;;;;;2.40;2.30;;;39.00;36.60;;;;;;5108960;28;20488;-67
2022/08/14 09:21:42;;;;;;;2.90;2.53;;;39.20;37.70;;;;;;5097761;28;20456;-63
2022/08/14 09:24:09;;;;;;;2.80;2.70;;;39.60;36.40;;;;;;5097588;28;20476;-62
2022/08/14 09:26:37;;;;;;;8.77;2.40;;;39.80;36.50;;;;;;5097683;28;20449;-61
2022/08/14 09:29:04;;;;;;;2.80;2.57;;;39.90;35.30;;;;;;5097035;28;20473;-61
2022/08/14 09:31:34;;;;;;;2.60;2.50;;;40.10;35.10;;;;;;5097364;28;20507;-61
2022/08/14 09:34:14;;;;;;;4.47;2.67;;;40.10;35.50;;;;;;5097333;28;20469;-63
2022/08/14 09:36:55;;;;;;;2.97;2.87;;;40.20;34.50;;;;;;5096832;28;20528;-63
2022/08/14 09:39:46;;;;;;;2.87;2.77;;;40.00;34.20;;;;;;5096662;28;20440;-64
2022/08/14 09:42:32;;;;;;;2.87;2.77;;;39.90;34.00;;;;;;5096989;28;20437;-63
2022/08/14 09:45:12;;;;;;;3.20;3.07;;;39.50;34.60;;;;;;5096832;28;20534;-63
2022/08/14 09:47:48;;;;;;;3.10;2.80;;;38.90;34.50;;;;;;5096887;28;20464;-63
2022/08/14 09:50:28;;;;;;;3.70;3.40;;;38.50;35.70;;;;;;5096385;28;20472;-63
2022/08/14 09:53:01;;;;;;;3.63;3.43;;;38.40;35.40;;;;;;5096361;28;20459;-63
2022/08/14 09:55:31;;;;;;;3.20;3.10;;;38.20;35.50;;;;;;5096289;28;20475;-61
2022/08/14 09:58:10;;;;;;;3.07;2.87;;;38.10;35.60;;;;;;5096415;28;20452;-63
2022/08/14 10:00:46;;;;;;;3.03;2.93;;;38.20;36.00;;;;;;5096288;28;20440;-62
2022/08/14 10:03:13;;;;;;;2.97;2.73;;;38.20;35.40;;;;;;5096516;28;20437;-62
2022/08/14 10:05:40;;;;;;;3.47;3.10;;;38.40;35.90;;;;;;5097166;28;20868;-66
2022/08/14 10:08:20;;;;;;;2.90;2.70;;;38.50;35.40;;;;;;5096072;28;20503;-62
2022/08/14 10:10:47;;;;;;;3.23;3.13;;;38.50;34.80;;;;;;5096149;28;20488;-62
2022/08/14 10:13:24;;;;;;;3.10;2.90;;;38.50;35.10;;;;;;5096069;28;20502;-63
2022/08/14 10:15:58;;;;;;;3.40;3.10;;;38.90;35.20;;;;;;5095864;28;20448;-63
2022/08/14 10:18:27;;;;;;;3.13;3.03;;;39.10;34.80;;;;;;5095980;28;20456;-63
2022/08/14 10:20:57;;;;;;;3.40;3.10;;;39.20;34.00;;;;;;5095905;28;20449;-63
2022/08/14 10:23:27;;;;;;;4.20;3.03;;;39.60;34.70;;;;;;5095676;28;20484;-62
2022/08/14 10:26:00;;;;;;;6.13;3.23;;;39.90;34.30;;;;;;5096163;28;20449;-62
2022/08/14 10:28:41;;;;;;;3.17;3.07;;;40.10;33.60;;;;;;5095493;28;20531;-62
2022/08/14 10:31:17;;;;;;;3.50;3.30;;;40.00;34.70;;;;;;5094805;28;20433;-62
2022/08/14 10:33:45;;;;;;;2.90;2.80;;;40.20;34.80;;;;;;5095573;28;20481;-62
2022/08/14 10:36:11;;;;;;;6.90;3.83;;;40.40;33.80;;;;;;5095511;28;20456;-63
2022/08/14 10:38:39;;;;;;;3.00;2.83;;;40.60;34.60;;;;;;5095558;28;20438;-62
2022/08/14 10:41:12;;;;;;;2.90;2.70;;;40.70;32.80;;;;;;5095020;28;20948;-63
2022/08/14 10:43:40;;;;;;;3.47;2.70;;;40.60;32.20;;;;;;5095188;28;20211;-64
2022/08/14 10:46:13;;;;;;;3.30;3.00;;;40.50;32.90;;;;;;5095311;28;20236;-62
2022/08/14 10:48:41;;;;;;;3.33;3.23;;;40.40;33.60;;;;;;5095369;28;20464;-64
2022/08/14 10:51:08;;;;;;;2.80;2.70;;;40.10;32.30;;;;;;5095127;28;20909;-63
2022/08/14 10:53:38;;;;;;;4.00;3.10;;;40.00;32.90;;;;;;5095476;28;20468;-62
2022/08/14 10:56:09;;;;;;;3.13;2.93;;;40.00;33.90;;;;;;5095179;28;20440;-62
2022/08/14 10:58:36;;;;;;;3.10;3.00;;;40.20;33.80;;;;;;5095295;28;20857;-63
2022/08/14 11:01:04;;;;;;;3.33;3.20;;;40.40;32.10;;;;;;5095214;28;20456;-63
2022/08/14 11:03:42;;;;;;;3.10;3.00;;;40.30;32.00;;;;;;5095353;28;20464;-63
2022/08/14 11:06:18;;;;;;;4.17;3.20;;;39.70;32.90;;;;;;5095147;28;20468;-63
2022/08/14 11:08:45;;;;;;;2.90;2.80;;;39.60;33.40;;;;;;5094836;28;20563;-67
2022/08/14 11:11:14;;;;;;;2.90;2.80;;;39.10;33.10;;;;;;5094808;28;20840;-63
2022/08/14 11:13:45;;;;;;;3.50;3.30;;;38.90;33.30;;;;;;5094447;28;20983;-64
2022/08/14 11:16:12;;;;;;;4.10;3.47;;;38.80;33.20;;;;;;5095038;28;20437;-65
2022/08/14 11:18:43;;;;;;;3.50;3.20;;;38.30;33.30;;;;;;5094817;28;20460;-63
2022/08/14 11:21:15;;;;;;;3.37;3.17;;;37.60;34.00;;;;;;5094798;28;20433;-63
2022/08/14 11:23:44;;;;;;;3.80;3.60;;;37.00;34.00;;;;;;5094194;28;20468;-62
2022/08/14 11:26:14;;;;;;;4.30;3.90;;;36.70;34.90;;;;;;5094195;28;20944;-62
2022/08/14 11:28:42;;;;;;;3.63;3.43;;;36.10;35.40;;;;;;5094456;28;20547;-63
2022/08/14 11:31:12;;;;;;;4.67;4.27;;;35.40;35.90;;;;;;5094554;28;20455;-63
2022/08/14 11:33:40;;;;;;;3.60;3.40;;;35.20;36.80;;;;;;5094373;28;20901;-62
2022/08/14 11:36:10;;;;;;;4.03;3.83;;;34.70;36.90;;;;;;5094542;28;20449;-63
2022/08/14 11:38:37;;;;;;;3.40;3.30;;;34.40;37.50;;;;;;5094683;28;20456;-63
2022/08/14 11:41:04;;;;;;;3.90;3.37;;;34.10;37.20;;;;;;5094260;28;20449;-63
2022/08/14 11:43:39;;;;;;;4.50;4.10;;;33.80;38.10;;;;;;5094109;28;20479;-62
2022/08/14 11:46:06;;;;;;;4.00;3.80;;;33.70;38.70;;;;;;5094326;28;20527;-62
2022/08/14 11:48:33;;;;;;;3.80;3.60;;;33.70;38.80;;;;;;5094188;28;20460;-62
2022/08/14 11:50:59;;;;;;;3.33;3.23;;;33.70;38.50;;;;;;5094222;28;20522;-62
2022/08/14 11:53:29;;;;;;;3.97;3.70;;;33.50;38.00;;;;;;5093901;28;21012;-61
2022/08/14 11:55:57;;;;;;;3.70;3.50;;;33.40;38.70;;;;;;5093896;28;20767;-61
2022/08/14 11:58:29;;;;;;;4.23;3.83;;;33.40;38.60;;;;;;5094112;28;20460;-62
2022/08/14 12:01:00;;;;;;;3.73;3.53;;;33.50;39.10;;;;;;5094104;28;20510;-62
2022/08/14 12:03:38;;;;;;;4.17;3.97;;;33.60;38.90;;;;;;5093758;28;20870;-62
2022/08/14 12:06:07;;;;;;;3.60;3.40;;;33.60;38.70;;;;;;5094235;28;20486;-62
2022/08/14 12:08:35;;;;;;;3.73;3.50;;;33.60;38.90;;;;;;5093906;28;20461;-68
2022/08/14 12:11:02;;;;;;;4.23;3.83;;;33.80;38.70;;;;;;5094121;28;20798;-64
2022/08/14 12:13:31;;;;;;;4.30;3.63;;;33.90;38.60;;;;;;5094147;28;20468;-65
2022/08/14 12:16:02;;;;;;;4.40;4.10;;;33.80;38.70;;;;;;5094111;28;20543;-63
2022/08/14 12:18:31;;;;;;;3.90;3.60;;;33.90;39.10;;;;;;5094026;28;20797;-63
2022/08/14 12:20:58;;;;;;;3.63;3.50;;;34.00;38.40;;;;;;5093657;28;20449;-63
2022/08/14 12:23:26;;;;;;;3.80;3.60;;;33.90;38.00;;;;;;5093968;28;20826;-63
2022/08/14 12:26:03;;;;;;;3.73;3.50;;;33.80;38.00;;;;;;5093889;28;20449;-64
2022/08/14 12:28:29;;;;;;;3.70;3.50;;;33.80;38.40;;;;;;5094278;28;20445;-64
2022/08/14 12:30:57;;;;;;;4.13;3.93;;;33.90;38.20;;;;;;5093845;28;20503;-63
2022/08/14 12:33:29;;;;;;;4.03;3.83;;;34.00;37.80;;;;;;5093936;28;20459;-67
2022/08/14 12:35:58;;;;;;;3.60;3.40;;;34.00;37.60;;;;;;5094514;28;20900;-65
2022/08/14 12:38:33;;;;;;;3.80;3.60;;;34.10;37.20;;;;;;5093955;28;20490;-65
2022/08/14 12:41:05;;;;;;;4.27;3.50;;;34.20;38.10;;;;;;5093734;28;20444;-65
2022/08/14 12:43:33;;;;;;;3.70;3.60;;;34.00;37.70;;;;;;5094072;28;20508;-66
2022/08/14 12:46:00;;;;;;;3.67;3.47;;;33.70;37.60;;;;;;5094605;28;20464;-67
2022/08/14 12:48:30;;;;;;;4.23;3.93;;;33.60;37.80;;;;;;5094180;28;20448;-63
2022/08/14 12:50:57;;;;;;;3.50;3.20;;;33.60;38.80;;;;;;5094307;28;20538;-63
2022/08/14 12:53:35;;;;;;;5.20;4.30;;;33.70;37.70;;;;;;5093831;28;20453;-63
2022/08/14 12:56:05;;;;;;;3.23;3.03;;;33.80;38.70;;;;;;5096267;28;20899;-63
2022/08/14 12:58:32;;;;;;;3.57;2.87;;;34.00;37.90;;;;;;5097305;28;20899;-62
2022/08/14 13:01:01;;;;;;;3.27;3.07;;;34.10;36.00;;;;;;5097630;28;20459;-62
2022/08/14 13:03:29;;;;;;;4.20;4.00;;;34.00;35.10;;;;;;5097493;28;20469;-62
2022/08/14 13:05:56;;;;;;;3.73;3.53;;;33.90;35.60;;;;;;5097464;28;20449;-63
2022/08/14 13:08:24;;;;;;;3.00;2.90;;;33.80;36.00;;;;;;5097116;28;20478;-63
2022/08/14 13:10:52;;;;;;;3.33;3.03;;;33.80;35.60;;;;;;5097450;28;20477;-63
2022/08/14 13:13:20;;;;;;;3.30;3.20;;;33.80;35.30;;;;;;5097197;28;20449;-62
2022/08/14 13:15:51;;;;;;;3.70;3.60;;;33.80;36.20;;;;;;5097664;28;20452;-63
2022/08/14 13:18:21;;;;;;;3.10;3.00;;;33.80;36.60;;;;;;5096976;28;20529;-63
2022/08/14 13:20:50;;;;;;;3.23;3.00;;;33.80;35.70;;;;;;5096948;28;20448;-63
2022/08/14 13:23:19;;;;;;;2.80;2.70;;;33.90;35.10;;;;;;5096809;28;20536;-63
2022/08/14 13:25:52;;;;;;;4.80;3.13;;;33.90;35.70;;;;;;5096814;28;20449;-63
2022/08/14 13:28:24;;;;;;;3.73;3.43;;;33.80;35.60;;;;;;5096950;28;20437;-63
2022/08/14 13:30:52;;;;;;;3.07;2.97;;;33.70;36.40;;;;;;5096664;28;20457;-64
2022/08/14 13:33:20;;;;;;;3.13;2.93;;;33.70;35.10;;;;;;5096604;28;20448;-64
2022/08/14 13:35:50;;;;;;;5.03;3.47;;;33.80;35.90;;;;;;5096542;28;20547;-63
2022/08/14 13:38:20;;;;;;;3.03;2.83;;;33.80;36.50;;;;;;5096622;28;20452;-63
2022/08/14 13:40:54;;;;;;;3.13;2.70;;;34.00;36.00;;;;;;5096655;28;20449;-63
2022/08/14 13:43:21;;;;;;;4.10;2.77;;;34.10;35.00;;;;;;5096578;28;20437;-63
2022/08/14 13:45:48;;;;;;;2.50;2.40;;;34.10;34.20;;;;;;5096429;28;20548;-63
2022/08/14 13:48:15;;;;;;;3.43;2.67;;;34.20;34.00;;;;;;5098218;28;20456;-64
2022/08/14 13:50:44;;;;;;;2.70;2.60;;;34.10;34.00;;;;;;5099517;28;20485;-67
2022/08/14 13:53:14;;;;;;;3.33;3.23;;;34.10;34.60;;;;;;5099938;28;20452;-69
2022/08/14 13:55:44;;;;;;;3.53;3.23;;;34.10;35.30;;;;;;5098139;28;20970;-70
2022/08/14 13:58:14;;;;;;;3.30;3.10;;;33.90;35.10;;;;;;5096563;28;20441;-69
2022/08/14 14:00:41;;;;;;;3.00;2.90;;;33.90;36.10;;;;;;5096131;28;20896;-66
2022/08/14 14:03:09;;;;;;;3.10;2.90;;;33.90;35.10;;;;;;5095859;28;20449;-64
2022/08/14 14:05:38;;;;;;;2.60;2.50;;;33.90;35.50;;;;;;5096130;28;20862;-66
2022/08/14 14:08:06;;;;;;;2.90;2.70;;;34.00;35.90;;;;;;5096024;28;20460;-66
2022/08/14 14:10:37;;;;;;;2.40;2.40;;;34.10;34.30;;;;;;5096188;28;20480;-65
2022/08/14 14:13:04;;;;;;;2.90;2.70;;;34.10;33.80;;;;;;5096083;28;20445;-63
2022/08/14 14:15:31;;;;;;;3.37;2.93;;;34.10;33.40;;;;;;5095987;28;20473;-63
2022/08/14 14:17:59;;;;;;;2.80;2.70;;;34.10;33.50;;;;;;5096341;28;20916;-64
2022/08/14 14:20:25;;;;;;;2.60;2.50;;;34.20;33.50;;;;;;5095832;28;20556;-63
2022/08/14 14:22:52;;;;;;;2.60;2.50;;;34.20;33.90;;;;;;5095798;28;20453;-64
2022/08/14 14:25:20;;;;;;;2.87;2.73;;;34.20;34.30;;;;;;5095734;28;20476;-64
2022/08/14 14:27:50;;;;;;;2.57;2.47;;;34.20;34.50;;;;;;5096338;28;20452;-64
2022/08/14 14:30:18;;;;;;;2.73;2.53;;;34.20;34.70;;;;;;5096392;28;20560;-64
2022/08/14 14:32:47;;;;;;;2.70;2.53;;;34.10;34.70;;;;;;5096613;28;20437;-63
2022/08/14 14:35:18;;;;;;;2.77;2.60;;;34.20;34.90;;;;;;5096850;28;20809;-64
2022/08/14 14:37:45;;;;;;;2.80;2.70;;;34.40;35.50;;;;;;5098380;28;20440;-62
2022/08/14 14:40:14;;;;;;;2.90;2.80;;;34.40;34.70;;;;;;5099978;28;20460;-62
2022/08/14 14:42:47;;;;;;;2.83;2.63;;;34.40;34.10;;;;;;5099938;28;20556;-64
2022/08/14 14:45:18;;;;;;;3.07;2.87;;;34.30;34.90;;;;;;5095854;28;20492;-64
2022/08/14 14:47:48;;;;;;;3.00;2.80;;;34.40;35.00;;;;;;5095318;28;20792;-64
2022/08/14 14:50:15;;;;;;;2.93;2.73;;;34.30;35.40;;;;;;5095268;28;20484;-64
2022/08/14 14:52:43;;;;;;;3.43;2.97;;;34.40;35.40;;;;;;5095344;28;20456;-64
2022/08/14 14:55:12;;;;;;;3.93;2.90;;;34.30;35.20;;;;;;5095118;28;20468;-63